createdAt,value
2023-01-29T00:00:48.416Z,0.77
2023-01-29T00:01:50.821Z,0.63
2023-01-29T00:02:53.086Z,0.61
2023-01-29T00:03:55.343Z,0.59
2023-01-29T00:05:10.041Z,0.58
2023-01-29T00:06:15.412Z,0.63
2023-01-29T00:07:17.617Z,0.63
2023-01-29T00:08:19.821Z,0.58
2023-01-29T00:09:22.144Z,0.48
2023-01-29T00:10:25.449Z,0.51
2023-01-29T00:11:27.965Z,0.57
2023-01-29T00:12:30.101Z,0.50
2023-01-29T00:13:34.423Z,0.45
2023-01-29T00:14:36.609Z,0.44
2023-01-29T00:15:38.877Z,0.38
2023-01-29T00:16:41.152Z,0.31
2023-01-29T00:17:43.490Z,0.30
2023-01-29T00:18:45.991Z,0.47
2023-01-29T00:19:48.265Z,0.63
2023-01-29T00:20:50.715Z,0.78
2023-01-29T00:21:52.931Z,0.93
2023-01-29T00:22:55.090Z,0.97
2023-01-29T00:23:57.873Z,1.14
2023-01-29T00:25:00.344Z,1.20
2023-01-29T00:26:02.597Z,1.27
2023-01-29T00:27:05.936Z,1.30
2023-01-29T00:28:08.265Z,1.23
2023-01-29T00:29:10.896Z,1.26
2023-01-29T00:30:13.811Z,1.29
2023-01-29T00:31:22.184Z,1.34
2023-01-29T00:32:24.610Z,1.26
2023-01-29T00:33:29.249Z,0.97
2023-01-29T00:34:31.527Z,0.86
2023-01-29T00:35:34.247Z,0.69
2023-01-29T00:36:36.485Z,0.57
2023-01-29T00:37:38.784Z,0.55
2023-01-29T00:38:41.377Z,0.56
2023-01-29T00:39:48.227Z,0.50
2023-01-29T00:41:09.263Z,0.54
2023-01-29T00:42:34.627Z,0.49
2023-01-29T00:43:55.508Z,0.29
2023-01-29T00:44:57.796Z,0.17
2023-01-29T00:45:59.981Z,0.13
2023-01-29T00:47:03.767Z,0.11
2023-01-29T00:48:06.487Z,0.07
2023-01-29T00:49:09.191Z,0.16
2023-01-29T00:50:12.491Z,0.19
2023-01-29T00:51:14.787Z,0.27
2023-01-29T00:52:26.215Z,0.28
2023-01-29T00:53:29.085Z,0.26
2023-01-29T00:54:33.262Z,0.20
2023-01-29T00:55:35.597Z,0.25
2023-01-29T00:56:37.795Z,0.11
2023-01-29T00:57:40.077Z,0.13
2023-01-29T00:58:42.596Z,0.04
2023-01-29T00:59:47.775Z,0.03
2023-01-29T01:00:50.180Z,-0.02
2023-01-29T01:02:10.759Z,-0.02
2023-01-29T01:03:12.963Z,-0.07
2023-01-29T01:04:15.281Z,-0.13
2023-01-29T01:05:18.550Z,-0.14
2023-01-29T01:06:20.888Z,-0.02
2023-01-29T01:07:23.412Z,0.05
2023-01-29T01:08:44.335Z,0.27
2023-01-29T01:10:05.474Z,0.17
2023-01-29T01:11:07.677Z,0.34
2023-01-29T01:12:09.948Z,0.54
2023-01-29T01:13:12.532Z,0.54
2023-01-29T01:14:14.888Z,0.62
2023-01-29T01:15:18.900Z,0.62
2023-01-29T01:16:21.253Z,0.45
2023-01-29T01:17:23.744Z,0.58
2023-01-29T01:18:29.899Z,0.68
2023-01-29T01:19:33.676Z,0.75
2023-01-29T01:20:36.141Z,0.70
2023-01-29T01:21:38.380Z,0.74
2023-01-29T01:22:40.595Z,0.29
2023-01-29T01:23:42.819Z,0.15
2023-01-29T01:24:45.047Z,-0.19
2023-01-29T01:25:47.287Z,-0.27
2023-01-29T01:26:49.564Z,-0.31
2023-01-29T01:27:56.189Z,-0.37
2023-01-29T01:28:59.320Z,-0.34
2023-01-29T01:30:01.564Z,-0.42
2023-01-29T01:31:14.019Z,-0.31
2023-01-29T01:32:16.116Z,-0.31
2023-01-29T01:33:18.635Z,-0.32
2023-01-29T01:34:23.891Z,-0.46
2023-01-29T01:35:26.056Z,-0.50
2023-01-29T01:36:28.288Z,-0.39
2023-01-29T01:37:30.649Z,-0.48
2023-01-29T01:38:32.922Z,-0.29
2023-01-29T01:39:35.184Z,-0.07
2023-01-29T01:40:37.531Z,0.06
2023-01-29T01:41:39.866Z,0.09
2023-01-29T01:42:42.166Z,-0.09
2023-01-29T01:43:57.403Z,-0.16
2023-01-29T01:45:05.385Z,-0.13
2023-01-29T01:46:07.686Z,-0.17
2023-01-29T01:47:10.111Z,-0.15
2023-01-29T01:48:26.828Z,-0.16
2023-01-29T01:49:29.568Z,-0.31
2023-01-29T01:50:50.716Z,-0.34
2023-01-29T01:51:53.036Z,-0.48
2023-01-29T01:52:59.962Z,-0.40
2023-01-29T01:54:27.124Z,-0.46
2023-01-29T01:55:32.725Z,-0.45
2023-01-29T01:56:40.776Z,-0.50
2023-01-29T01:57:47.425Z,-0.36
2023-01-29T01:58:54.238Z,-0.40
2023-01-29T02:02:26.211Z,-0.59
2023-01-29T02:03:51.525Z,-0.62
2023-01-29T02:05:13.132Z,-0.66
2023-01-29T02:06:33.771Z,-0.67
2023-01-29T02:08:01.119Z,-0.60
2023-01-29T02:09:31.212Z,-0.53
2023-01-29T02:10:40.048Z,-0.64
2023-01-29T02:11:42.305Z,-0.62
2023-01-29T02:12:45.853Z,-0.67
2023-01-29T02:13:53.445Z,-0.63
2023-01-29T02:15:00.696Z,-0.65
2023-01-29T02:16:02.971Z,-0.57
2023-01-29T02:17:14.115Z,-0.64
2023-01-29T02:18:21.298Z,-0.71
2023-01-29T02:19:47.175Z,-0.70
2023-01-29T02:21:13.489Z,-0.72
2023-01-29T02:22:55.185Z,-0.72
2023-01-29T02:24:22.143Z,-0.72
2023-01-29T02:25:40.487Z,-0.73
2023-01-29T02:27:14.974Z,-0.72
2023-01-29T02:28:56.543Z,-0.80
2023-01-29T02:30:31.114Z,-0.76
2023-01-29T02:31:46.495Z,-0.71
2023-01-29T02:33:07.600Z,-0.67
2023-01-29T02:34:59.142Z,-0.69
2023-01-29T02:36:16.844Z,-0.68
2023-01-29T02:37:25.679Z,-0.60
2023-01-29T02:38:59.511Z,-0.58
2023-01-29T02:40:27.292Z,-0.51
2023-01-29T02:41:34.939Z,-0.40
2023-01-29T02:42:57.064Z,-0.45
2023-01-29T02:44:16.755Z,-0.41
2023-01-29T02:45:42.074Z,-0.43
2023-01-29T02:47:01.491Z,-0.40
2023-01-29T02:48:06.473Z,-0.46
2023-01-29T02:49:22.596Z,-0.34
2023-01-29T02:50:44.563Z,-0.45
2023-01-29T02:52:00.601Z,-0.52
2023-01-29T02:53:13.770Z,-0.57
2023-01-29T02:54:34.315Z,-0.48
2023-01-29T02:55:51.526Z,-0.46
2023-01-29T02:57:09.075Z,-0.56
2023-01-29T02:58:25.606Z,-0.56
2023-01-29T02:59:46.215Z,-0.48
2023-01-29T03:00:49.428Z,-0.49
2023-01-29T03:02:02.440Z,-0.36
2023-01-29T03:03:11.223Z,-0.35
2023-01-29T03:04:22.219Z,-0.29
2023-01-29T03:05:32.535Z,-0.23
2023-01-29T03:06:41.731Z,-0.18
2023-01-29T03:07:51.904Z,-0.18
2023-01-29T03:09:07.117Z,-0.02
2023-01-29T03:10:24.691Z,0.16
2023-01-29T03:11:36.811Z,0.20
2023-01-29T03:12:41.174Z,0.31
2023-01-29T03:13:49.431Z,0.38
2023-01-29T03:15:10.174Z,0.46
2023-01-29T03:16:30.116Z,0.45
2023-01-29T03:17:40.019Z,0.51
2023-01-29T03:18:46.856Z,0.58
2023-01-29T03:19:50.783Z,0.56
2023-01-29T03:21:04.193Z,0.49
2023-01-29T03:22:09.806Z,0.16
2023-01-29T03:23:24.110Z,-0.21
2023-01-29T03:24:50.520Z,-0.25
2023-01-29T03:26:14.265Z,-0.29
2023-01-29T03:27:39.564Z,-0.17
2023-01-29T03:29:01.707Z,-0.25
2023-01-29T03:30:25.691Z,-0.23
2023-01-29T03:31:57.932Z,-0.35
2023-01-29T03:33:06.349Z,-0.31
2023-01-29T03:34:16.493Z,-0.25
2023-01-29T03:35:33.321Z,-0.32
2023-01-29T03:36:47.281Z,-0.23
2023-01-29T03:37:50.774Z,-0.45
2023-01-29T03:38:53.454Z,-0.37
2023-01-29T03:39:56.509Z,-0.43
2023-01-29T03:41:24.947Z,-0.39
2023-01-29T03:42:43.928Z,-0.29
2023-01-29T03:43:55.472Z,-0.20
2023-01-29T03:45:16.651Z,-0.24
2023-01-29T03:46:23.141Z,-0.20
2023-01-29T03:47:49.648Z,-0.27
2023-01-29T03:48:59.281Z,-0.37
2023-01-29T03:50:25.019Z,-0.41
2023-01-29T03:51:36.575Z,-0.37
2023-01-29T03:52:57.658Z,-0.34
2023-01-29T03:54:13.017Z,-0.33
2023-01-29T03:55:22.977Z,-0.34
2023-01-29T03:56:40.286Z,-0.33
2023-01-29T03:58:01.026Z,-0.41
2023-01-29T03:59:15.172Z,-0.32
2023-01-29T04:00:42.839Z,-0.07
2023-01-29T04:01:49.990Z,0.07
2023-01-29T04:03:03.806Z,0.08
2023-01-29T04:04:19.842Z,0.07
2023-01-29T04:05:27.965Z,0.00
2023-01-29T04:06:45.857Z,0.09
2023-01-29T04:07:55.471Z,0.01
2023-01-29T04:09:06.282Z,-0.09
2023-01-29T04:10:16.983Z,-0.27
2023-01-29T04:11:22.162Z,-0.34
2023-01-29T04:12:35.460Z,-0.35
2023-01-29T04:13:40.042Z,-0.35
2023-01-29T04:14:42.725Z,-0.36
2023-01-29T04:15:50.724Z,-0.43
2023-01-29T04:17:02.773Z,-0.40
2023-01-29T04:18:20.395Z,-0.00
2023-01-29T04:19:39.108Z,0.09
2023-01-29T04:20:43.536Z,0.12
2023-01-29T04:21:50.058Z,0.28
2023-01-29T04:22:52.615Z,0.29
2023-01-29T04:23:55.374Z,0.27
2023-01-29T04:25:02.663Z,0.35
2023-01-29T04:26:33.045Z,0.33
2023-01-29T04:27:48.645Z,0.39
2023-01-29T04:29:13.750Z,0.41
2023-01-29T04:30:35.100Z,0.47
2023-01-29T04:32:07.957Z,0.50
2023-01-29T04:33:29.259Z,0.44
2023-01-29T04:34:55.863Z,0.54
2023-01-29T04:36:13.426Z,0.55
2023-01-29T04:37:49.844Z,0.59
2023-01-29T04:39:22.269Z,0.68
2023-01-29T04:40:40.644Z,0.68
2023-01-29T04:42:05.478Z,0.34
2023-01-29T04:43:28.463Z,0.11
2023-01-29T04:44:37.271Z,0.13
2023-01-29T04:46:06.409Z,0.29
2023-01-29T04:47:27.808Z,0.39
2023-01-29T04:48:43.891Z,-0.00
2023-01-29T04:49:54.932Z,0.23
2023-01-29T04:51:12.761Z,0.40
2023-01-29T04:52:26.891Z,0.45
2023-01-29T04:53:35.472Z,0.48
2023-01-29T04:55:03.075Z,0.54
2023-01-29T04:56:16.926Z,0.49
2023-01-29T04:57:25.349Z,0.52
2023-01-29T04:58:37.216Z,0.56
2023-01-29T04:59:46.807Z,0.50
2023-01-29T05:00:53.448Z,0.52
2023-01-29T05:01:55.901Z,0.56
2023-01-29T05:03:01.744Z,0.55
2023-01-29T05:04:10.019Z,0.52
2023-01-29T05:05:14.756Z,0.52
2023-01-29T05:06:18.322Z,0.50
2023-01-29T05:07:23.481Z,0.45
2023-01-29T05:08:28.224Z,0.43
2023-01-29T05:09:32.256Z,0.39
2023-01-29T05:10:35.601Z,0.41
2023-01-29T05:11:37.816Z,0.42
2023-01-29T05:12:42.687Z,0.46
2023-01-29T05:13:47.837Z,0.42
2023-01-29T05:14:53.571Z,0.40
2023-01-29T05:16:25.192Z,0.35
2023-01-29T05:17:27.931Z,0.32
2023-01-29T05:18:30.858Z,0.37
2023-01-29T05:19:33.374Z,0.47
2023-01-29T05:20:41.448Z,0.44
2023-01-29T05:21:46.938Z,0.50
2023-01-29T05:22:49.229Z,0.14
2023-01-29T05:24:12.236Z,-0.02
2023-01-29T05:25:22.093Z,-0.03
2023-01-29T05:26:43.183Z,0.12
2023-01-29T05:28:04.172Z,0.02
2023-01-29T05:29:06.429Z,-0.28
2023-01-29T05:30:10.246Z,-0.39
2023-01-29T05:31:12.547Z,-0.37
2023-01-29T05:32:15.993Z,-0.51
2023-01-29T05:33:21.270Z,-0.67
2023-01-29T05:34:23.855Z,-0.68
2023-01-29T05:35:26.675Z,-0.66
2023-01-29T05:36:29.079Z,-0.71
2023-01-29T05:37:31.355Z,-0.57
2023-01-29T05:38:33.564Z,-0.46
2023-01-29T05:39:35.738Z,-0.27
2023-01-29T05:40:38.219Z,-0.11
2023-01-29T05:41:40.547Z,-0.05
2023-01-29T05:42:42.739Z,0.04
2023-01-29T05:43:44.957Z,0.10
2023-01-29T05:44:47.198Z,0.22
2023-01-29T05:46:00.702Z,0.05
2023-01-29T05:47:02.896Z,-0.25
2023-01-29T05:48:05.311Z,-0.25
2023-01-29T05:49:07.532Z,-0.25
2023-01-29T05:50:10.581Z,-0.15
2023-01-29T05:51:12.891Z,-0.09
2023-01-29T05:52:15.135Z,-0.10
2023-01-29T05:53:17.308Z,0.01
2023-01-29T05:54:19.946Z,0.03
2023-01-29T05:55:22.131Z,-0.15
2023-01-29T05:56:25.295Z,-0.33
2023-01-29T05:57:27.449Z,-0.34
2023-01-29T05:58:33.779Z,-0.41
2023-01-29T05:59:36.127Z,-0.53
2023-01-29T06:00:38.679Z,-0.66
2023-01-29T06:01:41.124Z,-0.74
2023-01-29T06:02:43.415Z,-0.81
2023-01-29T06:03:46.124Z,-0.68
2023-01-29T06:04:48.305Z,-0.83
2023-01-29T06:05:50.498Z,-0.80
2023-01-29T06:06:52.654Z,-0.74
2023-01-29T06:07:55.539Z,-0.72
2023-01-29T06:08:57.796Z,-0.88
2023-01-29T06:10:00.017Z,-0.96
2023-01-29T06:11:02.603Z,-0.98
2023-01-29T06:12:06.162Z,-0.77
2023-01-29T06:13:08.383Z,-0.68
2023-01-29T06:14:10.746Z,-0.76
2023-01-29T06:15:15.473Z,-0.72
2023-01-29T06:16:17.824Z,-0.76
2023-01-29T06:17:20.079Z,-0.83
2023-01-29T06:18:22.282Z,-0.83
2023-01-29T06:19:24.531Z,-0.84
2023-01-29T06:20:26.879Z,-0.69
2023-01-29T06:21:29.115Z,-0.54
2023-01-29T06:22:32.798Z,-0.35
2023-01-29T06:23:35.051Z,-0.28
2023-01-29T06:24:37.652Z,-0.18
2023-01-29T06:25:39.905Z,-0.07
2023-01-29T06:26:42.085Z,-0.00
2023-01-29T06:27:44.261Z,0.02
2023-01-29T06:28:49.547Z,0.01
2023-01-29T06:29:51.822Z,-0.10
2023-01-29T06:30:58.250Z,-0.19
2023-01-29T06:32:02.094Z,-0.29
2023-01-29T06:33:04.403Z,-0.29
2023-01-29T06:34:09.806Z,-0.19
2023-01-29T06:35:12.048Z,-0.14
2023-01-29T06:36:14.312Z,-0.18
2023-01-29T06:37:16.585Z,-0.19
2023-01-29T06:38:18.824Z,-0.23
2023-01-29T06:39:21.094Z,-0.24
2023-01-29T06:40:23.333Z,-0.20
2023-01-29T06:41:25.763Z,-0.10
2023-01-29T06:42:28.237Z,-0.04
2023-01-29T06:43:30.505Z,-0.10
2023-01-29T06:44:32.744Z,0.05
2023-01-29T06:45:34.979Z,0.12
2023-01-29T06:46:37.280Z,-0.12
2023-01-29T06:47:39.469Z,-0.42
2023-01-29T06:48:41.735Z,-0.35
2023-01-29T06:49:44.870Z,-0.48
2023-01-29T06:50:47.260Z,-0.39
2023-01-29T06:51:49.661Z,-0.48
2023-01-29T06:52:51.936Z,-0.42
2023-01-29T06:53:55.974Z,-0.50
2023-01-29T06:54:58.170Z,-0.44
2023-01-29T06:56:00.557Z,-0.28
2023-01-29T06:57:02.873Z,-0.23
2023-01-29T06:58:07.112Z,-0.22
2023-01-29T06:59:11.025Z,-0.17
2023-01-29T07:00:13.918Z,-0.02
2023-01-29T07:01:33.386Z,-0.09
2023-01-29T07:02:37.642Z,0.01
2023-01-29T07:03:41.542Z,0.08
2023-01-29T07:04:43.781Z,0.07
2023-01-29T07:05:53.823Z,0.04
2023-01-29T07:06:56.179Z,-0.01
2023-01-29T07:07:58.479Z,-0.02
2023-01-29T07:09:00.820Z,-0.03
2023-01-29T07:10:03.243Z,-0.20
2023-01-29T07:11:07.406Z,-0.20
2023-01-29T07:12:10.955Z,-0.13
2023-01-29T07:13:13.154Z,-0.31
2023-01-29T07:14:15.334Z,-0.40
2023-01-29T07:15:20.250Z,-0.26
2023-01-29T07:16:23.303Z,-0.09
2023-01-29T07:17:25.574Z,-0.22
2023-01-29T07:18:28.849Z,-0.29
2023-01-29T07:19:31.005Z,-0.40
2023-01-29T07:20:33.474Z,-0.28
2023-01-29T07:21:35.724Z,-0.19
2023-01-29T07:22:37.999Z,-0.28
2023-01-29T07:23:40.228Z,-0.35
2023-01-29T07:24:42.574Z,-0.10
2023-01-29T07:25:45.266Z,0.01
2023-01-29T07:26:47.501Z,0.06
2023-01-29T07:27:49.746Z,-0.04
2023-01-29T07:28:51.959Z,0.03
2023-01-29T07:29:54.172Z,-0.13
2023-01-29T07:30:59.570Z,-0.14
2023-01-29T07:32:01.892Z,-0.23
2023-01-29T07:33:07.528Z,-0.29
2023-01-29T07:34:09.826Z,-0.38
2023-01-29T07:35:12.466Z,-0.51
2023-01-29T07:36:14.938Z,-0.59
2023-01-29T07:37:17.176Z,-0.66
2023-01-29T07:38:19.510Z,-0.56
2023-01-29T07:39:21.765Z,-0.59
2023-01-29T07:40:24.084Z,-0.51
2023-01-29T07:41:26.326Z,-0.49
2023-01-29T07:42:28.577Z,-0.49
2023-01-29T07:43:31.117Z,-0.52
2023-01-29T07:44:33.344Z,-0.58
2023-01-29T07:45:37.442Z,-0.62
2023-01-29T07:46:39.738Z,-0.46
2023-01-29T07:47:41.996Z,-0.28
2023-01-29T07:48:44.291Z,-0.20
2023-01-29T07:49:46.531Z,-0.26
2023-01-29T07:50:56.471Z,-0.49
2023-01-29T07:51:58.703Z,-0.45
2023-01-29T07:53:01.561Z,-0.19
2023-01-29T07:54:03.870Z,0.04
2023-01-29T07:55:06.452Z,0.14
2023-01-29T07:56:08.692Z,0.26
2023-01-29T07:57:10.942Z,0.25
2023-01-29T07:58:13.173Z,0.33
2023-01-29T07:59:15.463Z,0.37
2023-01-29T08:00:18.492Z,0.26
2023-01-29T08:01:20.961Z,0.37
2023-01-29T08:02:23.234Z,0.47
2023-01-29T08:03:25.514Z,0.40
2023-01-29T08:04:27.699Z,0.08
2023-01-29T08:05:30.124Z,-0.06
2023-01-29T08:06:32.404Z,-0.20
2023-01-29T08:07:34.623Z,-0.09
2023-01-29T08:08:36.805Z,-0.05
2023-01-29T08:09:39.007Z,-0.29
2023-01-29T08:10:41.792Z,-0.26
2023-01-29T08:11:44.033Z,-0.36
2023-01-29T08:12:46.236Z,-0.18
2023-01-29T08:13:48.502Z,-0.07
2023-01-29T08:14:50.779Z,-0.37
2023-01-29T08:15:53.049Z,-0.43
2023-01-29T08:16:55.267Z,-0.39
2023-01-29T08:17:58.567Z,-0.53
2023-01-29T08:19:02.681Z,-0.54
2023-01-29T08:20:07.219Z,-0.62
2023-01-29T08:21:09.750Z,-0.54
2023-01-29T08:22:11.968Z,-0.57
2023-01-29T08:23:16.445Z,-0.37
2023-01-29T08:24:18.746Z,-0.52
2023-01-29T08:25:21.066Z,-0.51
2023-01-29T08:26:23.439Z,-0.24
2023-01-29T08:27:26.200Z,-0.00
2023-01-29T08:28:28.491Z,0.17
2023-01-29T08:29:30.704Z,0.33
2023-01-29T08:30:34.594Z,0.07
2023-01-29T08:31:37.321Z,-0.08
2023-01-29T08:32:39.541Z,-0.01
2023-01-29T08:33:41.823Z,-0.12
2023-01-29T08:34:44.087Z,-0.27
2023-01-29T08:35:50.570Z,-0.08
2023-01-29T08:36:53.235Z,0.02
2023-01-29T08:37:59.126Z,0.25
2023-01-29T08:39:01.576Z,0.36
2023-01-29T08:40:04.103Z,0.50
2023-01-29T08:41:07.157Z,0.62
2023-01-29T08:42:09.426Z,0.67
2023-01-29T08:43:13.447Z,0.84
2023-01-29T08:44:15.625Z,0.82
2023-01-29T08:45:17.850Z,0.35
2023-01-29T08:46:20.101Z,0.09
2023-01-29T08:47:22.355Z,0.05
2023-01-29T08:48:25.170Z,-0.05
2023-01-29T08:49:27.346Z,-0.12
2023-01-29T08:50:34.665Z,-0.18
2023-01-29T08:51:37.430Z,-0.14
2023-01-29T08:52:39.641Z,-0.05
2023-01-29T08:53:41.858Z,0.03
2023-01-29T08:54:44.033Z,0.45
2023-01-29T08:55:46.323Z,0.71
2023-01-29T08:56:48.654Z,0.89
2023-01-29T08:57:50.915Z,0.73
2023-01-29T08:58:53.192Z,0.86
2023-01-29T08:59:55.408Z,0.74
2023-01-29T09:01:05.632Z,0.70
2023-01-29T09:02:10.910Z,0.64
2023-01-29T09:03:13.548Z,0.60
2023-01-29T09:04:15.809Z,0.95
2023-01-29T09:05:18.415Z,1.14
2023-01-29T09:06:21.075Z,1.09
2023-01-29T09:07:23.395Z,1.01
2023-01-29T09:08:25.595Z,1.23
2023-01-29T09:09:27.861Z,1.12
2023-01-29T09:10:30.241Z,0.92
2023-01-29T09:11:32.454Z,0.55
2023-01-29T09:12:34.645Z,0.55
2023-01-29T09:13:37.287Z,0.70
2023-01-29T09:14:39.500Z,0.96
2023-01-29T09:15:41.684Z,1.46
2023-01-29T09:16:44.046Z,1.78
2023-01-29T09:17:46.909Z,1.84
2023-01-29T09:18:49.164Z,1.91
2023-01-29T09:19:53.023Z,2.14
2023-01-29T09:20:55.270Z,2.40
2023-01-29T09:21:57.494Z,2.53
2023-01-29T09:23:07.062Z,2.53
2023-01-29T09:24:09.280Z,2.13
2023-01-29T09:25:11.933Z,2.29
2023-01-29T09:26:14.183Z,2.43
2023-01-29T09:27:16.475Z,2.37
2023-01-29T09:28:18.807Z,2.63
2023-01-29T09:29:21.022Z,2.65
2023-01-29T09:30:23.249Z,2.51
2023-01-29T09:31:25.615Z,2.58
2023-01-29T09:33:52.683Z,2.18
2023-01-29T09:34:54.876Z,2.27
2023-01-29T09:35:57.112Z,2.30
2023-01-29T09:36:59.296Z,2.18
2023-01-29T09:38:01.581Z,2.05
2023-01-29T09:39:03.850Z,1.77
2023-01-29T09:40:07.067Z,1.36
2023-01-29T09:41:20.622Z,1.30
2023-01-29T09:42:29.409Z,1.36
2023-01-29T09:43:51.230Z,1.35
2023-01-29T09:44:59.136Z,1.53
2023-01-29T09:46:07.633Z,1.77
2023-01-29T09:47:13.835Z,1.61
2023-01-29T09:48:16.503Z,1.27
2023-01-29T09:49:26.411Z,1.18
2023-01-29T09:50:39.983Z,1.30
2023-01-29T09:51:48.931Z,1.28
2023-01-29T09:53:26.655Z,1.92
2023-01-29T09:55:06.703Z,2.40
2023-01-29T09:56:17.966Z,2.69
2023-01-29T09:57:29.082Z,2.80
2023-01-29T09:58:37.176Z,2.86
2023-01-29T09:59:39.450Z,2.11
2023-01-29T10:01:04.622Z,1.84
2023-01-29T10:02:22.326Z,1.61
2023-01-29T10:03:43.727Z,1.48
2023-01-29T10:05:11.264Z,1.35
2023-01-29T10:06:50.810Z,1.59
2023-01-29T10:08:24.536Z,1.51
2023-01-29T10:09:59.591Z,1.04
2023-01-29T10:11:24.770Z,0.87
2023-01-29T10:12:49.273Z,0.99
2023-01-29T10:14:14.843Z,1.25
2023-01-29T10:15:44.874Z,1.57
2023-01-29T10:16:59.224Z,2.08
2023-01-29T10:18:25.301Z,2.48
2023-01-29T10:19:39.734Z,2.63
2023-01-29T10:21:19.288Z,2.81
2023-01-29T10:22:40.316Z,3.03
2023-01-29T10:23:52.413Z,3.25
2023-01-29T10:25:09.179Z,3.22
2023-01-29T10:26:13.370Z,3.26
2023-01-29T10:27:17.395Z,3.24
2023-01-29T10:28:39.433Z,2.63
2023-01-29T10:29:43.969Z,2.64
2023-01-29T10:30:49.974Z,2.71
2023-01-29T10:31:56.846Z,2.68
2023-01-29T10:33:04.624Z,2.43
2023-01-29T10:34:30.271Z,2.44
2023-01-29T10:35:41.287Z,2.68
2023-01-29T10:36:46.155Z,2.61
2023-01-29T10:37:51.727Z,2.79
2023-01-29T10:38:55.886Z,2.98
2023-01-29T10:40:00.019Z,3.23
2023-01-29T10:41:11.037Z,3.05
2023-01-29T10:42:19.707Z,3.16
2023-01-29T10:43:32.348Z,3.15
2023-01-29T10:45:05.713Z,2.69
2023-01-29T10:46:16.609Z,2.40
2023-01-29T10:47:46.457Z,2.66
2023-01-29T10:49:13.221Z,3.05
2023-01-29T10:50:24.890Z,3.09
2023-01-29T10:51:46.024Z,3.12
2023-01-29T10:53:00.817Z,3.22
2023-01-29T10:54:22.217Z,3.09
2023-01-29T10:55:36.269Z,2.91
2023-01-29T10:56:57.194Z,2.78
2023-01-29T10:58:26.558Z,2.68
2023-01-29T10:59:43.575Z,2.90
2023-01-29T11:00:45.956Z,2.86
2023-01-29T11:01:48.137Z,2.88
2023-01-29T11:02:51.832Z,2.89
2023-01-29T11:04:00.706Z,2.77
2023-01-29T11:05:02.936Z,2.69
2023-01-29T11:06:23.933Z,2.23
2023-01-29T11:07:27.687Z,2.28
2023-01-29T11:08:38.111Z,2.57
2023-01-29T11:09:46.268Z,2.61
2023-01-29T11:11:01.424Z,2.67
2023-01-29T11:12:14.069Z,2.67
2023-01-29T11:13:17.277Z,2.24
2023-01-29T11:14:30.970Z,2.17
2023-01-29T11:15:34.920Z,2.20
2023-01-29T11:16:43.654Z,2.15
2023-01-29T11:18:14.231Z,2.37
2023-01-29T11:19:17.533Z,2.10
2023-01-29T11:20:29.907Z,1.86
2023-01-29T11:21:32.107Z,1.83
2023-01-29T11:22:35.098Z,2.15
2023-01-29T11:23:37.381Z,2.48
2023-01-29T11:24:39.654Z,2.65
2023-01-29T11:25:52.719Z,2.47
2023-01-29T11:27:00.045Z,2.60
2023-01-29T11:28:03.035Z,2.67
2023-01-29T11:29:05.329Z,3.17
2023-01-29T11:30:16.317Z,3.67
2023-01-29T11:31:38.091Z,3.57
2023-01-29T11:32:41.057Z,3.20
2023-01-29T11:33:44.932Z,3.21
2023-01-29T11:35:21.396Z,3.54
2023-01-29T11:36:38.263Z,3.53
2023-01-29T11:37:43.117Z,3.60
2023-01-29T11:38:45.368Z,3.24
2023-01-29T11:39:47.672Z,3.21
2023-01-29T11:40:50.702Z,3.12
2023-01-29T11:42:04.985Z,2.63
2023-01-29T11:43:33.501Z,3.34
2023-01-29T11:44:42.568Z,3.91
2023-01-29T11:45:46.463Z,3.27
2023-01-29T11:46:49.746Z,3.04
2023-01-29T11:47:55.033Z,3.03
2023-01-29T11:48:59.322Z,3.22
2023-01-29T11:50:22.332Z,3.21
2023-01-29T11:51:27.949Z,2.75
2023-01-29T11:52:42.378Z,2.50
2023-01-29T11:53:52.857Z,2.75
2023-01-29T11:55:02.298Z,2.42
2023-01-29T11:56:54.389Z,2.63
2023-01-29T11:58:17.149Z,2.65
2023-01-29T11:59:27.349Z,2.94
2023-01-29T12:00:33.123Z,2.88
2023-01-29T12:01:38.509Z,3.08
2023-01-29T12:02:46.885Z,3.17
2023-01-29T12:03:53.889Z,2.86
2023-01-29T12:05:00.123Z,2.30
2023-01-29T12:06:04.121Z,2.35
2023-01-29T12:07:13.851Z,2.89
2023-01-29T12:08:18.233Z,3.22
2023-01-29T12:09:25.003Z,2.64
2023-01-29T12:10:39.494Z,2.70
2023-01-29T12:11:41.923Z,2.92
2023-01-29T12:12:44.768Z,2.82
2023-01-29T12:13:55.540Z,2.82
2023-01-29T12:15:27.491Z,2.95
2023-01-29T12:16:33.065Z,3.33
2023-01-29T12:17:39.786Z,3.54
2023-01-29T12:18:47.494Z,3.98
2023-01-29T12:20:02.092Z,4.16
2023-01-29T12:21:36.955Z,3.96
2023-01-29T12:22:53.692Z,3.56
2023-01-29T12:24:17.018Z,3.59
2023-01-29T12:25:27.871Z,3.26
2023-01-29T12:26:38.361Z,3.16
2023-01-29T12:28:00.261Z,3.43
2023-01-29T12:29:11.496Z,3.38
2023-01-29T12:30:27.244Z,2.98
2023-01-29T12:31:40.603Z,2.80
2023-01-29T12:33:06.272Z,2.48
2023-01-29T12:34:20.019Z,2.41
2023-01-29T12:35:33.140Z,2.79
2023-01-29T12:36:42.409Z,2.78
2023-01-29T12:38:00.963Z,2.61
2023-01-29T12:39:03.417Z,2.41
2023-01-29T12:40:15.910Z,2.60
2023-01-29T12:41:45.804Z,2.66
2023-01-29T12:42:53.221Z,2.92
2023-01-29T12:44:05.754Z,2.85
2023-01-29T12:45:11.007Z,3.18
2023-01-29T12:46:24.815Z,2.84
2023-01-29T12:47:27.119Z,3.00
2023-01-29T12:48:39.396Z,3.03
2023-01-29T12:49:45.358Z,2.84
2023-01-29T12:50:49.231Z,2.81
2023-01-29T12:51:55.768Z,2.99
2023-01-29T12:53:00.516Z,2.95
2023-01-29T12:54:20.149Z,2.87
2023-01-29T12:55:30.481Z,2.96
2023-01-29T12:56:51.878Z,3.19
2023-01-29T12:57:58.929Z,2.96
2023-01-29T12:59:10.353Z,2.69
2023-01-29T13:00:22.479Z,2.81
2023-01-29T13:01:46.662Z,2.97
2023-01-29T13:03:20.027Z,3.32
2023-01-29T13:04:22.404Z,2.96
2023-01-29T13:05:38.580Z,3.06
2023-01-29T13:06:47.232Z,3.00
2023-01-29T13:08:09.732Z,3.30
2023-01-29T13:09:25.283Z,3.58
2023-01-29T13:10:38.547Z,3.16
2023-01-29T13:11:57.205Z,3.32
2023-01-29T13:13:23.616Z,3.21
2023-01-29T13:14:36.150Z,3.57
2023-01-29T13:15:42.153Z,3.75
2023-01-29T13:16:48.155Z,3.79
2023-01-29T13:17:58.180Z,3.94
2023-01-29T13:19:06.550Z,3.49
2023-01-29T13:20:30.243Z,3.52
2023-01-29T13:21:40.251Z,3.45
2023-01-29T13:22:44.587Z,3.43
2023-01-29T13:23:51.522Z,2.88
2023-01-29T13:25:04.223Z,2.99
2023-01-29T13:26:08.158Z,3.01
2023-01-29T13:27:21.909Z,2.96
2023-01-29T13:28:26.418Z,2.99
2023-01-29T13:29:31.133Z,2.79
2023-01-29T13:30:36.830Z,2.85
2023-01-29T13:31:41.309Z,3.03
2023-01-29T13:32:52.537Z,2.88
2023-01-29T13:34:04.917Z,2.98
2023-01-29T13:35:13.069Z,3.26
2023-01-29T13:36:21.952Z,3.22
2023-01-29T13:37:31.179Z,3.44
2023-01-29T13:38:35.350Z,3.54
2023-01-29T13:39:44.548Z,3.43
2023-01-29T13:40:51.227Z,3.38
2023-01-29T13:41:55.783Z,3.58
2023-01-29T13:43:00.401Z,3.78
2023-01-29T13:44:05.874Z,3.91
2023-01-29T13:45:17.903Z,3.65
2023-01-29T13:46:21.658Z,3.66
2023-01-29T13:47:29.563Z,3.57
2023-01-29T13:48:35.611Z,3.36
2023-01-29T13:49:40.162Z,3.29
2023-01-29T13:50:43.269Z,3.50
2023-01-29T13:51:45.620Z,3.53
2023-01-29T13:52:57.678Z,3.51
2023-01-29T13:54:08.655Z,3.12
2023-01-29T13:55:13.670Z,2.79
2023-01-29T13:56:34.389Z,2.78
2023-01-29T13:57:39.470Z,2.66
2023-01-29T13:58:44.537Z,2.78
2023-01-29T13:59:53.061Z,2.50
2023-01-29T14:00:55.643Z,2.41
2023-01-29T14:02:04.026Z,2.55
2023-01-29T14:03:08.631Z,2.67
2023-01-29T14:04:21.557Z,2.63
2023-01-29T14:05:29.644Z,2.58
2023-01-29T14:06:44.099Z,2.49
2023-01-29T14:07:46.183Z,2.43
2023-01-29T14:08:48.517Z,2.64
2023-01-29T14:09:50.676Z,2.53
2023-01-29T14:11:16.259Z,2.53
2023-01-29T14:12:21.127Z,2.41
2023-01-29T14:13:27.790Z,2.58
2023-01-29T14:14:48.687Z,2.71
2023-01-29T14:15:57.362Z,2.80
2023-01-29T14:17:03.307Z,3.03
2023-01-29T14:18:14.177Z,3.07
2023-01-29T14:19:19.305Z,3.27
2023-01-29T14:20:45.070Z,2.80
2023-01-29T14:21:50.708Z,2.75
2023-01-29T14:22:59.557Z,2.66
2023-01-29T14:24:19.745Z,2.72
2023-01-29T14:25:29.921Z,2.63
2023-01-29T14:26:43.931Z,2.47
2023-01-29T14:27:49.594Z,2.68
2023-01-29T14:29:14.468Z,2.47
2023-01-29T14:30:19.406Z,2.31
2023-01-29T14:31:41.386Z,2.09
2023-01-29T14:32:49.331Z,2.26
2023-01-29T14:33:53.144Z,2.01
2023-01-29T14:35:04.977Z,1.93
2023-01-29T14:36:12.777Z,1.99
2023-01-29T14:37:14.952Z,2.29
2023-01-29T14:38:17.551Z,2.38
2023-01-29T14:39:24.994Z,2.24
2023-01-29T14:40:29.759Z,2.38
2023-01-29T14:41:34.237Z,2.34
2023-01-29T14:42:52.440Z,2.61
2023-01-29T14:44:31.906Z,2.84
2023-01-29T14:45:38.819Z,2.42
2023-01-29T14:46:44.067Z,2.17
2023-01-29T14:47:48.918Z,2.39
2023-01-29T14:48:51.889Z,2.44
2023-01-29T14:49:59.049Z,2.39
2023-01-29T14:51:10.912Z,2.50
2023-01-29T14:52:13.371Z,2.40
2023-01-29T14:53:19.817Z,2.39
2023-01-29T14:54:28.195Z,2.52
2023-01-29T14:55:45.259Z,2.53
2023-01-29T14:57:05.028Z,2.26
2023-01-29T14:58:14.760Z,2.32
2023-01-29T14:59:26.910Z,2.36
2023-01-29T15:00:37.505Z,2.35
2023-01-29T15:01:44.663Z,2.40
2023-01-29T15:02:59.819Z,2.47
2023-01-29T15:04:18.008Z,2.30
2023-01-29T15:05:24.366Z,2.28
2023-01-29T15:06:39.056Z,2.33
2023-01-29T15:08:03.295Z,2.59
2023-01-29T15:09:36.307Z,2.75
2023-01-29T15:11:13.297Z,2.87
2023-01-29T15:12:39.572Z,2.62